createdAt,value
2023-04-22T00:01:05.385Z,4.50
2023-04-22T00:05:09.251Z,4.60
2023-04-22T00:09:16.572Z,4.40
2023-04-22T00:13:19.343Z,4.37
2023-04-22T00:17:22.318Z,4.17
2023-04-22T00:21:25.035Z,3.90
2023-04-22T00:25:29.306Z,3.80
2023-04-22T00:29:32.035Z,3.97
2023-04-22T00:33:34.788Z,4.40
2023-04-22T00:37:39.346Z,4.07
2023-04-22T00:41:44.380Z,3.97
2023-04-22T00:45:47.491Z,4.07
2023-04-22T00:49:50.570Z,4.27
2023-04-22T00:53:53.191Z,4.23
2023-04-22T00:57:58.107Z,4.23
2023-04-22T01:02:01.353Z,4.50
2023-04-22T01:06:04.065Z,4.10
2023-04-22T01:10:10.342Z,4.77
2023-04-22T01:14:14.523Z,4.70
2023-04-22T01:18:17.443Z,4.50
2023-04-22T01:22:20.368Z,4.40
2023-04-22T01:26:24.610Z,4.50
2023-04-22T01:30:27.744Z,4.70
2023-04-22T01:34:31.475Z,4.90
2023-04-22T01:38:34.424Z,4.87
2023-04-22T01:42:41.682Z,4.60
2023-04-22T01:46:44.346Z,4.80
2023-04-22T01:50:47.269Z,4.60
2023-04-22T01:54:49.968Z,4.90
2023-04-22T01:58:54.006Z,4.70
2023-04-22T02:02:57.004Z,4.60
2023-04-22T02:06:59.917Z,4.87
2023-04-22T02:11:02.914Z,4.80
2023-04-22T02:15:11.998Z,4.43
2023-04-22T02:19:14.693Z,4.60
2023-04-22T02:23:17.424Z,5.00
2023-04-22T02:27:24.631Z,5.07
2023-04-22T02:31:28.950Z,5.47
2023-04-22T02:35:32.461Z,5.03
2023-04-22T02:39:35.831Z,5.30
2023-04-22T02:43:45.938Z,5.33
2023-04-22T02:47:50.032Z,4.83
2023-04-22T02:51:52.780Z,4.77
2023-04-22T02:55:55.748Z,5.53
2023-04-22T02:59:58.864Z,5.03
2023-04-22T03:04:03.625Z,5.37
2023-04-22T03:08:06.456Z,4.97
2023-04-22T03:12:09.405Z,5.10
2023-04-22T03:16:12.138Z,4.90
2023-04-22T03:20:16.509Z,4.70
2023-04-22T03:24:19.493Z,5.17
2023-04-22T03:28:22.183Z,4.70
2023-04-22T03:32:24.926Z,4.60
2023-04-22T03:36:29.689Z,4.63
2023-04-22T03:40:32.298Z,4.87
2023-04-22T03:44:34.975Z,5.20
2023-04-22T03:48:37.653Z,5.57
2023-04-22T03:52:43.580Z,5.00
2023-04-22T03:56:48.535Z,5.30
2023-04-22T04:00:51.471Z,5.17
2023-04-22T04:04:54.749Z,5.27
2023-04-22T04:08:59.118Z,4.97
2023-04-22T04:13:01.825Z,4.30
2023-04-22T04:17:04.659Z,4.97
2023-04-22T04:21:08.009Z,4.97
2023-04-22T04:25:14.108Z,4.57
2023-04-22T04:29:20.159Z,4.80
2023-04-22T04:33:23.225Z,4.60
2023-04-22T04:37:26.292Z,4.93
2023-04-22T04:41:31.804Z,5.10
2023-04-22T04:45:36.426Z,5.03
2023-04-22T04:49:40.573Z,5.03
2023-04-22T04:53:43.834Z,4.70
2023-04-22T04:57:48.285Z,4.60
2023-04-22T05:01:51.510Z,4.30
2023-04-22T05:05:54.500Z,4.33
2023-04-22T05:09:57.299Z,4.93
2023-04-22T05:14:04.240Z,4.70
2023-04-22T05:18:07.156Z,4.57
2023-04-22T05:22:09.838Z,4.80
2023-04-22T05:26:12.913Z,4.27
2023-04-22T05:30:17.008Z,4.33
2023-04-22T05:34:20.059Z,4.97
2023-04-22T05:38:22.920Z,4.57
2023-04-22T05:42:25.706Z,4.33
2023-04-22T05:46:30.298Z,4.67
2023-04-22T05:50:33.110Z,3.70
2023-04-22T05:54:36.000Z,4.20
2023-04-22T05:58:38.679Z,4.10
2023-04-22T06:02:43.074Z,3.80
2023-04-22T06:06:45.895Z,4.40
2023-04-22T06:10:48.638Z,4.90
2023-04-22T06:14:51.563Z,2.30
2023-04-22T06:18:55.706Z,2.57
2023-04-22T06:22:58.413Z,2.93
2023-04-22T06:27:02.184Z,4.50
2023-04-22T06:31:05.239Z,4.37
2023-04-22T06:35:10.568Z,4.07
2023-04-22T06:39:13.328Z,4.10
2023-04-22T06:43:16.159Z,4.40
2023-04-22T06:47:18.926Z,4.40
2023-04-22T06:51:23.091Z,4.23
2023-04-22T06:55:25.840Z,4.70
2023-04-22T06:59:28.644Z,3.50
2023-04-22T07:03:31.609Z,4.13
2023-04-22T07:07:36.282Z,3.63
2023-04-22T07:11:38.954Z,4.63
2023-04-22T07:15:41.996Z,4.13
2023-04-22T07:19:44.606Z,4.40
2023-04-22T07:23:48.708Z,4.50
2023-04-22T07:27:51.782Z,4.30
2023-04-22T07:31:54.471Z,4.30
2023-04-22T07:35:57.414Z,5.17
2023-04-22T07:40:01.647Z,4.20
2023-04-22T07:44:04.993Z,3.73
2023-04-22T07:48:10.938Z,3.77
2023-04-22T07:52:13.582Z,3.93
2023-04-22T07:56:17.704Z,3.80
2023-04-22T08:00:20.775Z,3.77
2023-04-22T08:04:25.979Z,4.30
2023-04-22T08:08:29.828Z,3.73
2023-04-22T08:12:34.375Z,4.10
2023-04-22T08:16:37.860Z,3.33
2023-04-22T08:20:40.750Z,4.30
2023-04-22T08:24:43.434Z,3.57
2023-04-22T08:28:48.117Z,3.43
2023-04-22T08:32:53.115Z,4.10
2023-04-22T08:36:55.841Z,3.43
2023-04-22T08:40:59.060Z,3.30
2023-04-22T08:45:03.877Z,3.30
2023-04-22T08:49:06.663Z,3.43
2023-04-22T08:53:09.552Z,3.30
2023-04-22T08:57:13.445Z,3.43
2023-04-22T09:01:18.205Z,3.17
2023-04-22T09:05:22.732Z,3.50
2023-04-22T09:09:25.701Z,3.90
2023-04-22T09:13:31.177Z,3.00
2023-04-22T09:17:38.316Z,3.47
2023-04-22T09:21:42.006Z,3.23
2023-04-22T09:25:46.472Z,3.17
2023-04-22T09:29:49.753Z,2.97
2023-04-22T09:33:56.127Z,2.87
2023-04-22T09:37:59.517Z,3.10
2023-04-22T09:42:02.269Z,3.30
2023-04-22T09:46:07.885Z,2.93
2023-04-22T09:50:13.374Z,3.60
2023-04-22T09:54:16.105Z,3.00
2023-04-22T09:58:20.145Z,3.00
2023-04-22T10:02:30.282Z,3.03
2023-04-22T10:06:35.070Z,3.10
2023-04-22T10:10:38.163Z,2.90
2023-04-22T10:14:43.741Z,2.77
2023-04-22T10:18:49.378Z,3.63
2023-04-22T10:22:54.793Z,2.80
2023-04-22T10:26:59.834Z,2.57
2023-04-22T10:31:07.517Z,2.80
2023-04-22T10:35:12.340Z,2.60
2023-04-22T10:39:22.051Z,2.60
2023-04-22T10:43:41.782Z,2.50
2023-04-22T10:47:47.582Z,2.50
2023-04-22T10:51:51.777Z,2.60
2023-04-22T10:55:56.821Z,2.23
2023-04-22T11:00:00.417Z,2.30
2023-04-22T11:04:20.982Z,1.60
2023-04-22T11:08:29.674Z,2.10
2023-04-22T11:12:45.027Z,2.60
2023-04-22T11:16:48.258Z,2.60
2023-04-22T11:20:52.422Z,3.83
2023-04-22T11:24:59.090Z,2.13
2023-04-22T11:29:03.462Z,2.00
2023-04-22T11:33:06.693Z,1.40
2023-04-22T11:37:16.228Z,1.40
2023-04-22T11:41:23.385Z,1.47
2023-04-22T11:45:28.474Z,1.50
2023-04-22T11:49:32.663Z,1.30
2023-04-22T11:53:35.959Z,1.35
2023-04-22T11:57:38.666Z,2.22
2023-04-22T12:01:44.702Z,1.40
2023-04-22T12:05:49.361Z,1.80
2023-04-22T12:09:54.934Z,1.50
2023-04-22T12:13:57.646Z,1.70
2023-04-22T12:18:02.753Z,1.55
2023-04-22T12:22:08.637Z,1.60
2023-04-22T12:26:11.495Z,1.53
2023-04-22T12:30:16.179Z,1.60
2023-04-22T12:34:20.236Z,1.50
2023-04-22T12:38:23.221Z,1.63
2023-04-22T12:42:25.915Z,1.60
2023-04-22T12:46:28.631Z,1.63
2023-04-22T12:50:32.831Z,1.40
2023-04-22T12:54:35.488Z,1.70
2023-04-22T12:58:38.278Z,1.57
2023-04-22T13:02:42.629Z,1.53
2023-04-22T13:06:47.204Z,1.60
2023-04-22T13:10:53.090Z,2.10
2023-04-22T13:15:01.134Z,1.87
2023-04-22T13:19:04.548Z,1.77
2023-04-22T13:23:09.703Z,1.80
2023-04-22T13:27:13.829Z,2.00
2023-04-22T13:31:17.276Z,1.70
2023-04-22T13:35:19.975Z,1.85
2023-04-22T13:39:25.950Z,1.90
2023-04-22T13:43:28.872Z,1.67
2023-04-22T13:47:33.126Z,1.70
2023-04-22T13:51:37.945Z,1.75
2023-04-22T13:55:43.434Z,1.77
2023-04-22T13:59:46.224Z,1.30
2023-04-22T14:03:50.127Z,1.35
2023-04-22T14:07:53.228Z,1.25
2023-04-22T14:11:57.771Z,1.30
2023-04-22T14:16:01.600Z,1.45
2023-04-22T14:20:05.960Z,1.67
2023-04-22T14:24:08.773Z,1.73
2023-04-22T14:28:12.937Z,1.60
2023-04-22T14:32:18.780Z,1.50
2023-04-22T14:36:21.608Z,2.22
2023-04-22T14:40:28.591Z,1.60
2023-04-22T14:44:34.362Z,1.73
2023-04-22T14:48:39.388Z,1.90
2023-04-22T14:52:43.086Z,1.70
2023-04-22T14:56:45.804Z,2.00
2023-04-22T15:00:50.051Z,2.40
2023-04-22T15:04:53.312Z,2.50
2023-04-22T15:08:58.942Z,2.00
2023-04-22T15:13:01.707Z,1.40
2023-04-22T15:17:06.530Z,2.00
2023-04-22T15:21:12.294Z,1.77
2023-04-22T15:25:17.471Z,1.50
2023-04-22T15:29:20.990Z,1.60
2023-04-22T15:33:25.655Z,1.87
2023-04-22T15:37:30.369Z,1.83
2023-04-22T15:41:33.961Z,1.37
2023-04-22T15:45:38.191Z,2.00
2023-04-22T15:49:42.777Z,1.50
2023-04-22T15:53:46.405Z,1.40
2023-04-22T15:57:49.078Z,1.53
2023-04-22T16:01:52.223Z,1.50
2023-04-22T16:05:56.529Z,1.70
2023-04-22T16:09:59.478Z,2.00
2023-04-22T16:14:02.279Z,1.80
2023-04-22T16:18:05.847Z,1.40
2023-04-22T16:22:12.725Z,1.93
2023-04-22T16:26:15.667Z,1.10
2023-04-22T16:30:18.335Z,1.40
2023-04-22T16:34:21.888Z,1.40
2023-04-22T16:38:26.179Z,1.80
2023-04-22T16:42:28.819Z,1.90
2023-04-22T16:46:31.520Z,1.93
2023-04-22T16:50:34.522Z,1.70
2023-04-22T16:54:38.583Z,1.50
2023-04-22T16:58:42.675Z,1.50
2023-04-22T17:02:48.241Z,1.80
2023-04-22T17:06:51.377Z,1.53
2023-04-22T17:10:55.745Z,2.43
2023-04-22T17:14:58.430Z,2.60
2023-04-22T17:19:01.111Z,2.70
2023-04-22T17:23:04.849Z,2.73
2023-04-22T17:27:08.966Z,2.50
2023-04-22T17:31:11.695Z,2.53
2023-04-22T17:35:14.775Z,1.80
2023-04-22T17:39:17.478Z,2.00
2023-04-22T17:43:22.369Z,1.93
2023-04-22T17:47:25.123Z,2.03
2023-04-22T17:51:28.281Z,3.03
2023-04-22T17:55:34.969Z,2.60
2023-04-22T17:59:39.453Z,2.53
2023-04-22T18:03:42.680Z,2.00
2023-04-22T18:07:45.597Z,4.87
2023-04-22T18:11:48.591Z,8.00
2023-04-22T18:15:52.896Z,4.40
2023-04-22T18:20:09.579Z,4.00
2023-04-22T18:24:18.701Z,3.93
2023-04-22T18:28:21.691Z,4.97
2023-04-22T18:32:25.826Z,4.30
2023-04-22T18:36:30.714Z,3.60
2023-04-22T18:40:33.394Z,2.30
2023-04-22T18:44:36.664Z,2.60
2023-04-22T18:48:40.956Z,5.60
2023-04-22T18:52:43.962Z,9.33
2023-04-22T18:56:46.709Z,4.93
2023-04-22T19:00:49.401Z,3.60
2023-04-22T19:04:54.651Z,3.57
2023-04-22T19:08:57.457Z,2.83
2023-04-22T19:13:00.173Z,3.10
2023-04-22T19:17:02.928Z,3.30
2023-04-22T19:21:07.147Z,2.77
2023-04-22T19:25:10.401Z,2.50
2023-04-22T19:29:16.035Z,2.10
2023-04-22T19:33:18.973Z,2.17
2023-04-22T19:37:23.665Z,2.50
2023-04-22T19:41:26.446Z,2.50
2023-04-22T19:45:29.934Z,2.00
2023-04-22T19:49:33.577Z,2.40
2023-04-22T19:53:37.888Z,2.73
2023-04-22T19:57:42.254Z,2.13
2023-04-22T20:01:45.699Z,2.20
2023-04-22T20:05:49.799Z,2.50
2023-04-22T20:09:55.066Z,2.10
2023-04-22T20:14:00.960Z,1.93
2023-04-22T20:18:04.180Z,2.17
2023-04-22T20:22:11.608Z,2.20
2023-04-22T20:26:20.015Z,2.60
2023-04-22T20:30:23.016Z,2.47
2023-04-22T20:34:26.726Z,2.77
2023-04-22T20:38:30.861Z,2.60
2023-04-22T20:42:37.369Z,2.73
2023-04-22T20:46:40.085Z,2.80
2023-04-22T20:50:43.912Z,2.80
2023-04-22T20:54:51.101Z,2.90
2023-04-22T20:58:55.560Z,4.60
2023-04-22T21:02:58.489Z,3.30
2023-04-22T21:07:03.973Z,3.20
2023-04-22T21:11:07.123Z,3.30
2023-04-22T21:15:13.024Z,2.93
2023-04-22T21:19:16.741Z,2.80
2023-04-22T21:23:20.076Z,3.30
2023-04-22T21:27:23.176Z,2.87
2023-04-22T21:31:28.079Z,2.80
2023-04-22T21:35:31.211Z,2.80
2023-04-22T21:39:33.994Z,3.07
2023-04-22T21:43:36.978Z,3.10
2023-04-22T21:47:41.171Z,2.87
2023-04-22T21:51:44.160Z,3.33
2023-04-22T21:55:47.211Z,2.60
2023-04-22T21:59:49.905Z,2.57
2023-04-22T22:03:54.359Z,2.20
2023-04-22T22:07:57.271Z,2.10
2023-04-22T22:12:01.494Z,2.30
2023-04-22T22:16:04.300Z,2.30
2023-04-22T22:20:12.140Z,2.07
2023-04-22T22:24:14.815Z,2.20
2023-04-22T22:28:17.904Z,1.90
2023-04-22T22:32:21.129Z,2.20
2023-04-22T22:36:25.558Z,2.30
2023-04-22T22:40:28.303Z,2.27
2023-04-22T22:44:33.193Z,2.13
2023-04-22T22:48:35.877Z,2.20
2023-04-22T22:52:39.952Z,2.50
2023-04-22T22:56:42.923Z,2.40
2023-04-22T23:00:45.701Z,2.33
2023-04-22T23:04:48.476Z,2.23
2023-04-22T23:08:52.761Z,2.23
2023-04-22T23:12:55.479Z,2.30
2023-04-22T23:16:58.213Z,2.30
2023-04-22T23:21:01.477Z,2.60
2023-04-22T23:25:06.885Z,2.60
2023-04-22T23:29:09.852Z,2.57
2023-04-22T23:33:14.422Z,2.23
2023-04-22T23:37:23.094Z,2.70
2023-04-22T23:41:27.364Z,2.30
2023-04-22T23:45:30.267Z,2.57
2023-04-22T23:49:33.241Z,2.77
2023-04-22T23:53:36.171Z,2.40
2023-04-22T23:57:41.188Z,2.70
